createdAt,value
2019-01-25T00:02:11.805Z,-0.40
2019-01-25T00:04:41.496Z,-0.40
2019-01-25T00:07:11.285Z,-0.40
2019-01-25T00:09:40.913Z,-0.40
2019-01-25T00:12:10.741Z,-0.40
2019-01-25T00:14:40.550Z,-0.50
2019-01-25T00:17:10.340Z,-0.50
2019-01-25T00:19:40.206Z,-0.50
2019-01-25T00:22:10.117Z,-0.40
2019-01-25T00:24:39.904Z,-0.40
2019-01-25T00:27:09.723Z,-0.40
2019-01-25T00:29:39.470Z,-0.40
2019-01-25T00:32:09.189Z,-0.40
2019-01-25T00:34:39.004Z,-0.40
2019-01-25T00:37:08.749Z,-0.40
2019-01-25T00:39:38.502Z,-0.40
2019-01-25T00:42:08.248Z,-0.40
2019-01-25T00:44:38.024Z,-0.30
2019-01-25T00:47:07.860Z,-0.30
2019-01-25T00:49:37.776Z,-0.30
2019-01-25T00:52:07.586Z,-0.30
2019-01-25T00:54:37.439Z,-0.30
2019-01-25T00:57:07.141Z,-0.30
2019-01-25T00:59:36.842Z,-0.40
2019-01-25T01:02:07.145Z,-0.50
2019-01-25T01:04:36.925Z,-0.40
2019-01-25T01:07:06.814Z,-0.50
2019-01-25T01:09:37.319Z,-0.50
2019-01-25T01:12:07.152Z,-0.40
2019-01-25T01:14:36.882Z,-0.50
2019-01-25T01:17:06.649Z,-0.40
2019-01-25T01:19:36.429Z,-0.30
2019-01-25T01:22:06.894Z,-0.30
2019-01-25T01:24:36.781Z,-0.40
2019-01-25T01:27:06.555Z,-0.40
2019-01-25T01:29:36.345Z,-0.40
2019-01-25T01:32:06.369Z,-0.40
2019-01-25T01:34:36.189Z,-0.50
2019-01-25T01:37:05.956Z,-0.50
2019-01-25T01:39:35.757Z,-0.40
2019-01-25T01:42:05.766Z,-0.40
2019-01-25T01:44:35.418Z,-0.30
2019-01-25T01:47:05.169Z,-0.30
2019-01-25T01:49:34.853Z,-0.30
2019-01-25T01:52:04.709Z,-0.30
2019-01-25T01:54:34.596Z,-0.20
2019-01-25T01:57:04.246Z,-0.20
2019-01-25T01:59:33.923Z,-0.20
2019-01-25T02:02:03.725Z,-0.10
2019-01-25T02:04:33.440Z,-0.20
2019-01-25T02:07:03.169Z,-0.10
2019-01-25T02:09:32.942Z,-0.20
2019-01-25T02:12:02.754Z,-0.20
2019-01-25T02:14:32.510Z,-0.10
2019-01-25T02:17:02.226Z,-0.10
2019-01-25T02:19:31.954Z,-0.10
2019-01-25T02:22:01.701Z,-0.20
2019-01-25T02:24:31.465Z,-0.30
2019-01-25T02:27:01.209Z,-0.30
2019-01-25T02:29:30.870Z,-0.20
2019-01-25T02:32:00.570Z,-0.20
2019-01-25T02:34:30.395Z,-0.20
2019-01-25T02:37:00.136Z,-0.20
2019-01-25T02:39:29.840Z,-0.20
2019-01-25T02:41:59.678Z,-0.20
2019-01-25T02:44:29.485Z,-0.30
2019-01-25T02:46:59.442Z,-0.30
2019-01-25T02:49:29.205Z,-0.20
2019-01-25T02:51:58.957Z,-0.20
2019-01-25T02:54:28.624Z,-0.10
2019-01-25T02:56:58.409Z,-0.10
2019-01-25T02:59:28.088Z,-0.10
2019-01-25T03:01:57.830Z,-0.20
2019-01-25T03:04:27.560Z,-0.20
2019-01-25T03:06:57.335Z,-0.20
2019-01-25T03:09:27.003Z,-0.20
2019-01-25T03:11:56.809Z,-0.20
2019-01-25T03:14:26.587Z,-0.20
2019-01-25T03:16:56.305Z,-0.20
2019-01-25T03:19:25.997Z,-0.20
2019-01-25T03:21:55.748Z,-0.20
2019-01-25T03:24:25.387Z,-0.10
2019-01-25T03:26:55.152Z,-0.10
2019-01-25T03:29:24.862Z,-0.10
2019-01-25T03:31:54.783Z,-0.20
2019-01-25T03:34:24.516Z,-0.20
2019-01-25T03:36:54.237Z,-0.20
2019-01-25T03:39:23.946Z,-0.20
2019-01-25T03:41:53.951Z,-0.20
2019-01-25T03:44:23.696Z,-0.20
2019-01-25T03:46:53.399Z,-0.20
2019-01-25T03:49:23.192Z,-0.30
2019-01-25T03:51:52.889Z,-0.30
2019-01-25T03:54:22.692Z,-0.30
2019-01-25T03:56:52.417Z,-0.30
2019-01-25T03:59:22.081Z,-0.30
2019-01-25T04:01:51.970Z,-0.30
2019-01-25T04:04:21.615Z,-0.30
2019-01-25T04:06:51.345Z,-0.30
2019-01-25T04:09:21.054Z,-0.30
2019-01-25T04:11:50.849Z,-0.40
2019-01-25T04:14:20.581Z,-0.40
2019-01-25T04:16:50.314Z,-0.40
2019-01-25T04:19:22.278Z,-0.40
2019-01-25T04:21:52.208Z,-0.40
2019-01-25T04:24:22.032Z,-0.40
2019-01-25T04:26:51.735Z,-0.40
2019-01-25T04:29:21.510Z,-0.40
2019-01-25T04:31:51.197Z,-0.40
2019-01-25T04:34:20.953Z,-0.40
2019-01-25T04:36:51.745Z,-0.50
2019-01-25T04:39:21.433Z,-0.50
2019-01-25T04:41:51.144Z,-0.50
2019-01-25T04:44:20.950Z,-0.50
2019-01-25T04:46:50.754Z,-0.50
2019-01-25T04:49:20.517Z,-0.50
2019-01-25T04:51:50.258Z,-0.50
2019-01-25T04:54:20.013Z,-0.40
2019-01-25T04:56:49.803Z,-0.40
2019-01-25T04:59:19.563Z,-0.40
2019-01-25T05:01:49.437Z,-0.40
2019-01-25T05:04:19.244Z,-0.40
2019-01-25T05:06:48.952Z,-0.40
2019-01-25T05:09:18.680Z,-0.40
2019-01-25T05:11:48.413Z,-0.40
2019-01-25T05:14:18.244Z,-0.50
2019-01-25T05:16:47.889Z,-0.50
2019-01-25T05:19:17.637Z,-0.50
2019-01-25T05:21:47.275Z,-0.50
2019-01-25T05:24:17.045Z,-0.50
2019-01-25T05:26:46.710Z,-0.50
2019-01-25T05:29:16.428Z,-0.50
2019-01-25T05:31:46.180Z,-0.50
2019-01-25T05:34:16.341Z,-0.50
2019-01-25T05:36:46.069Z,-0.40
2019-01-25T05:39:15.763Z,-0.40
2019-01-25T05:41:47.344Z,-0.40
2019-01-25T05:44:17.050Z,-0.50
2019-01-25T05:46:46.876Z,-0.50
2019-01-25T05:49:16.540Z,-0.60
2019-01-25T05:51:46.351Z,-0.60
2019-01-25T05:54:16.181Z,-0.50
2019-01-25T05:56:45.837Z,-0.60
2019-01-25T05:59:17.031Z,-0.60
2019-01-25T06:01:47.063Z,-0.60
2019-01-25T06:04:17.112Z,-0.70
2019-01-25T06:06:46.881Z,-0.70
2019-01-25T06:09:22.416Z,-0.70
2019-01-25T06:11:52.085Z,-0.80
2019-01-25T06:14:21.865Z,-0.80
2019-01-25T06:16:51.644Z,-0.80
2019-01-25T06:19:21.283Z,-0.90
2019-01-25T06:21:54.405Z,-0.90
2019-01-25T06:24:24.176Z,-0.90
2019-01-25T06:26:54.105Z,-0.90
2019-01-25T06:29:25.417Z,-0.80
2019-01-25T06:31:55.128Z,-0.80
2019-01-25T06:34:24.900Z,-0.80
2019-01-25T06:36:54.757Z,-0.80
2019-01-25T06:39:24.474Z,-0.80
2019-01-25T06:41:54.212Z,-0.70
2019-01-25T06:44:23.902Z,-0.80
2019-01-25T06:46:54.155Z,-0.80
2019-01-25T06:49:23.953Z,-0.80
2019-01-25T06:51:53.662Z,-0.70
2019-01-25T06:54:23.450Z,-0.70
2019-01-25T06:56:53.128Z,-0.60
2019-01-25T06:59:31.699Z,-0.60
2019-01-25T07:02:10.209Z,-0.50
2019-01-25T07:04:39.912Z,-0.50
2019-01-25T07:07:19.302Z,-0.50
2019-01-25T07:09:49.097Z,-0.60
2019-01-25T07:12:18.966Z,-0.50
2019-01-25T07:14:48.770Z,-0.50
2019-01-25T07:17:20.108Z,-0.50
2019-01-25T07:19:49.877Z,-0.50
2019-01-25T07:22:19.680Z,-0.40
2019-01-25T07:24:49.362Z,-0.40
2019-01-25T07:27:19.081Z,-0.40
2019-01-25T07:29:48.881Z,-0.40
2019-01-25T07:32:18.981Z,-0.50
2019-01-25T07:34:48.690Z,-0.50
2019-01-25T07:37:18.457Z,-0.40
2019-01-25T07:39:48.353Z,-0.40
2019-01-25T07:42:18.010Z,-0.30
2019-01-25T07:44:47.729Z,-0.40
2019-01-25T07:47:17.377Z,-0.40
2019-01-25T07:49:47.146Z,-0.30
2019-01-25T07:52:16.869Z,-0.30
2019-01-25T07:54:46.590Z,-0.30
2019-01-25T07:57:16.254Z,-0.30
2019-01-25T07:59:46.131Z,-0.20
2019-01-25T08:02:15.897Z,-0.10
2019-01-25T08:04:45.582Z,-0.10
2019-01-25T08:07:15.333Z,-0.10
2019-01-25T08:09:45.077Z,0.00
2019-01-25T08:12:14.874Z,0.00
2019-01-25T08:14:44.617Z,0.00
2019-01-25T08:17:14.317Z,0.00
2019-01-25T08:19:44.028Z,0.00
2019-01-25T08:22:13.801Z,0.10
2019-01-25T08:24:43.501Z,0.10
2019-01-25T08:27:13.216Z,0.10
2019-01-25T08:29:43.015Z,0.10
2019-01-25T08:32:12.965Z,0.10
2019-01-25T08:34:42.777Z,0.10
2019-01-25T08:37:12.577Z,0.10
2019-01-25T08:39:42.499Z,0.10
2019-01-25T08:42:15.690Z,0.10
2019-01-25T08:44:43.699Z,0.00
2019-01-25T08:47:13.421Z,0.10
2019-01-25T08:49:43.261Z,0.10
2019-01-25T08:52:13.268Z,0.10
2019-01-25T08:54:43.346Z,0.20
2019-01-25T08:57:13.163Z,0.20
2019-01-25T08:59:45.593Z,0.20
2019-01-25T09:02:14.433Z,0.20
2019-01-25T09:04:44.123Z,0.20
2019-01-25T09:07:13.861Z,0.20
2019-01-25T09:09:43.634Z,0.30
2019-01-25T09:12:13.328Z,0.30
2019-01-25T09:14:43.143Z,0.40
2019-01-25T09:17:12.893Z,0.40
2019-01-25T09:19:42.609Z,0.40
2019-01-25T09:22:12.303Z,0.50
2019-01-25T09:24:43.092Z,0.50
2019-01-25T09:27:12.854Z,0.50
2019-01-25T09:29:42.682Z,0.50
2019-01-25T09:32:12.663Z,0.50
2019-01-25T09:34:42.781Z,0.30
2019-01-25T09:37:12.544Z,0.40
2019-01-25T09:39:42.198Z,0.40
2019-01-25T09:42:11.978Z,0.50
2019-01-25T09:44:41.786Z,0.60
2019-01-25T09:47:11.665Z,0.60
2019-01-25T09:49:41.425Z,0.50
2019-01-25T09:52:11.159Z,0.50
2019-01-25T09:54:40.945Z,0.50
2019-01-25T09:57:10.721Z,0.60
2019-01-25T09:59:40.513Z,0.70
2019-01-25T10:02:10.301Z,0.80
2019-01-25T10:04:40.000Z,0.90
2019-01-25T10:07:09.761Z,1.00
2019-01-25T10:09:39.537Z,1.10
2019-01-25T10:12:10.002Z,1.20
2019-01-25T10:14:39.781Z,1.20
2019-01-25T10:17:09.522Z,1.40
2019-01-25T10:19:39.259Z,1.60
2019-01-25T10:22:09.004Z,1.70
2019-01-25T10:24:38.783Z,1.80
2019-01-25T10:27:08.497Z,1.90
2019-01-25T10:29:38.269Z,1.80
2019-01-25T10:32:08.138Z,1.90
2019-01-25T10:34:37.886Z,1.90
2019-01-25T10:37:07.666Z,2.20
2019-01-25T10:39:37.324Z,2.50
2019-01-25T10:42:07.097Z,2.70
2019-01-25T10:44:36.824Z,3.10
2019-01-25T10:47:06.568Z,3.30
2019-01-25T10:49:36.328Z,3.40
2019-01-25T10:52:06.348Z,3.40
2019-01-25T10:54:36.137Z,3.40
2019-01-25T10:57:06.446Z,3.50
2019-01-25T10:59:36.328Z,3.20
2019-01-25T11:02:06.557Z,3.10
2019-01-25T11:04:36.315Z,2.90
2019-01-25T11:07:08.393Z,2.70
2019-01-25T11:09:38.334Z,2.60
2019-01-25T11:12:08.096Z,2.30
2019-01-25T11:14:37.896Z,2.00
2019-01-25T11:17:07.643Z,1.60
2019-01-25T11:19:37.350Z,1.40
2019-01-25T11:22:07.105Z,1.30
2019-01-25T11:24:36.877Z,1.20
2019-01-25T11:27:06.665Z,1.30
2019-01-25T11:29:36.413Z,1.40
2019-01-25T11:32:06.361Z,1.50
2019-01-25T11:34:36.125Z,1.70
2019-01-25T11:37:05.980Z,1.80
2019-01-25T11:39:35.814Z,1.90
2019-01-25T11:42:05.605Z,2.00
2019-01-25T11:44:35.389Z,1.80
2019-01-25T11:47:05.180Z,1.50
2019-01-25T11:49:34.949Z,1.40
2019-01-25T11:52:04.758Z,1.40
2019-01-25T11:54:34.491Z,1.40
2019-01-25T11:57:04.289Z,1.20
2019-01-25T11:59:34.025Z,1.20
2019-01-25T12:02:04.094Z,1.00
2019-01-25T12:04:34.087Z,0.90
2019-01-25T12:07:03.872Z,0.90
2019-01-25T12:09:33.605Z,1.00
2019-01-25T12:12:03.402Z,1.00
2019-01-25T12:14:33.089Z,1.10
2019-01-25T12:17:02.833Z,1.10
2019-01-25T12:19:32.593Z,1.20
2019-01-25T12:22:02.332Z,1.20
2019-01-25T12:24:32.109Z,1.20
2019-01-25T12:27:01.745Z,1.50
2019-01-25T12:29:31.577Z,1.80
2019-01-25T12:32:01.386Z,2.20
2019-01-25T12:34:31.204Z,2.60
2019-01-25T12:37:04.594Z,2.60
2019-01-25T12:39:32.330Z,2.50
2019-01-25T12:42:01.997Z,2.40
2019-01-25T12:44:31.685Z,2.60
2019-01-25T12:47:01.437Z,2.80
2019-01-25T12:49:31.153Z,2.80
2019-01-25T12:52:08.254Z,2.70
2019-01-25T12:54:35.994Z,2.60
2019-01-25T12:57:05.850Z,2.20
2019-01-25T12:59:35.621Z,2.00
2019-01-25T13:02:06.971Z,2.20
2019-01-25T13:04:36.810Z,2.40
2019-01-25T13:07:06.525Z,2.60
2019-01-25T13:09:36.289Z,2.80
2019-01-25T13:12:06.361Z,2.80
2019-01-25T13:14:36.213Z,2.80
2019-01-25T13:17:06.251Z,2.50
2019-01-25T13:19:35.961Z,2.20
2019-01-25T13:22:05.712Z,1.90
2019-01-25T13:24:35.416Z,1.90
2019-01-25T13:27:05.233Z,1.90
2019-01-25T13:29:35.063Z,1.90
2019-01-25T13:32:04.918Z,1.80
2019-01-25T13:34:34.654Z,1.60
2019-01-25T13:37:04.597Z,1.40
2019-01-25T13:39:34.340Z,1.30
2019-01-25T13:42:04.098Z,1.20
2019-01-25T13:44:33.882Z,1.10
2019-01-25T13:47:03.626Z,1.10
2019-01-25T13:49:33.363Z,1.10
2019-01-25T13:52:03.101Z,1.20
2019-01-25T13:54:32.737Z,1.40
2019-01-25T13:57:02.464Z,1.50
2019-01-25T13:59:32.174Z,1.50
2019-01-25T14:02:01.857Z,1.60
2019-01-25T14:04:31.566Z,1.60
2019-01-25T14:07:01.340Z,1.60
2019-01-25T14:09:31.009Z,1.60
2019-01-25T14:12:00.651Z,1.50
2019-01-25T14:14:30.335Z,1.40
2019-01-25T14:16:59.968Z,1.30
2019-01-25T14:19:29.687Z,1.10
2019-01-25T14:21:59.369Z,1.00
2019-01-25T14:24:29.187Z,1.00
2019-01-25T14:26:58.886Z,1.00
2019-01-25T14:29:29.384Z,0.90
2019-01-25T14:31:59.574Z,0.90
2019-01-25T14:34:29.361Z,0.90
2019-01-25T14:36:59.013Z,0.80
2019-01-25T14:39:28.744Z,0.70
2019-01-25T14:41:58.517Z,0.60
2019-01-25T14:44:28.191Z,0.50
2019-01-25T14:46:57.970Z,0.50
2019-01-25T14:49:27.730Z,0.40
2019-01-25T14:51:57.561Z,0.40
2019-01-25T14:54:27.265Z,0.40
2019-01-25T14:56:57.001Z,0.40
2019-01-25T14:59:26.754Z,0.40
2019-01-25T15:01:56.591Z,0.40
2019-01-25T15:04:26.279Z,0.40
2019-01-25T15:06:56.060Z,0.30
2019-01-25T15:09:26.782Z,0.30
2019-01-25T15:11:56.610Z,0.30
2019-01-25T15:14:26.358Z,0.30
2019-01-25T15:16:56.149Z,0.20
2019-01-25T15:19:25.953Z,0.30
2019-01-25T15:21:55.683Z,0.20
2019-01-25T15:24:25.474Z,0.20
2019-01-25T15:26:55.198Z,0.20
2019-01-25T15:29:24.909Z,0.20
2019-01-25T15:31:55.072Z,0.20
2019-01-25T15:34:25.069Z,0.20
2019-01-25T15:36:54.785Z,0.20
2019-01-25T15:39:24.462Z,0.10
2019-01-25T15:41:54.129Z,0.10
2019-01-25T15:44:23.805Z,0.00
2019-01-25T15:46:54.681Z,-0.10
2019-01-25T15:49:24.482Z,-0.10
2019-01-25T15:51:54.145Z,-0.10
2019-01-25T15:54:23.855Z,-0.10
2019-01-25T15:56:53.599Z,-0.10
2019-01-25T15:59:23.322Z,-0.10
2019-01-25T16:01:53.026Z,-0.10
2019-01-25T16:04:25.024Z,-0.10
2019-01-25T16:06:54.777Z,-0.10
2019-01-25T16:09:24.677Z,-0.10
2019-01-25T16:11:54.414Z,-0.10
2019-01-25T16:14:24.293Z,-0.20
2019-01-25T16:16:54.019Z,-0.10
2019-01-25T16:19:23.781Z,-0.10
2019-01-25T16:21:53.529Z,-0.10
2019-01-25T16:24:23.885Z,-0.10
2019-01-25T16:26:53.533Z,-0.10
2019-01-25T16:29:23.213Z,0.00
2019-01-25T16:31:52.914Z,0.00
2019-01-25T16:34:22.718Z,-0.10
2019-01-25T16:36:52.704Z,-0.10
2019-01-25T16:39:22.521Z,-0.10
2019-01-25T16:41:52.322Z,-0.10
2019-01-25T16:44:25.813Z,-0.10
2019-01-25T16:46:53.591Z,0.00
2019-01-25T16:49:23.257Z,-0.10
2019-01-25T16:51:53.011Z,-0.10
2019-01-25T16:54:22.734Z,-0.10
2019-01-25T16:56:52.469Z,-0.10
2019-01-25T16:59:22.194Z,-0.10
2019-01-25T17:01:51.998Z,-0.10
2019-01-25T17:04:21.682Z,-0.20
2019-01-25T17:06:51.522Z,-0.20
2019-01-25T17:09:21.290Z,-0.20
2019-01-25T17:11:51.061Z,-0.20
2019-01-25T17:14:20.781Z,-0.20
2019-01-25T17:16:50.658Z,-0.20
2019-01-25T17:19:20.385Z,-0.20
2019-01-25T17:21:50.122Z,-0.20
2019-01-25T17:24:19.824Z,-0.20
2019-01-25T17:26:49.614Z,-0.20
2019-01-25T17:29:19.282Z,-0.10
2019-01-25T17:31:49.062Z,-0.10
2019-01-25T17:34:18.881Z,-0.10
2019-01-25T17:36:48.638Z,-0.10
2019-01-25T17:39:18.774Z,-0.20
2019-01-25T17:41:48.462Z,-0.10
2019-01-25T17:44:18.505Z,-0.20
2019-01-25T17:46:48.306Z,-0.20
2019-01-25T17:49:18.041Z,-0.20
2019-01-25T17:51:47.793Z,-0.20
2019-01-25T17:54:17.720Z,-0.20
2019-01-25T17:56:47.556Z,-0.30
2019-01-25T17:59:17.406Z,-0.30
2019-01-25T18:01:47.212Z,-0.20
2019-01-25T18:04:16.938Z,-0.30
2019-01-25T18:06:46.640Z,-0.30
2019-01-25T18:09:16.502Z,-0.30
2019-01-25T18:11:46.748Z,-0.40
2019-01-25T18:14:16.463Z,-0.40
2019-01-25T18:16:46.733Z,-0.40
2019-01-25T18:19:16.450Z,-0.40
2019-01-25T18:21:46.205Z,-0.40
2019-01-25T18:24:16.026Z,-0.40
2019-01-25T18:26:45.734Z,-0.40
2019-01-25T18:29:45.973Z,-0.40
2019-01-25T18:32:15.953Z,-0.50
2019-01-25T18:34:45.985Z,-0.50
2019-01-25T18:37:15.849Z,-0.50
2019-01-25T18:39:45.617Z,-0.50
2019-01-25T18:42:15.373Z,-0.50
2019-01-25T18:44:45.089Z,-0.50
2019-01-25T18:47:14.768Z,-0.50
2019-01-25T18:49:44.519Z,-0.50
2019-01-25T18:52:14.188Z,-0.50
2019-01-25T18:54:44.069Z,-0.50
2019-01-25T18:57:13.783Z,-0.50
2019-01-25T18:59:43.482Z,-0.50
2019-01-25T19:02:13.200Z,-0.50
2019-01-25T19:04:42.933Z,-0.50
2019-01-25T19:07:12.646Z,-0.50
2019-01-25T19:09:42.444Z,-0.50
2019-01-25T19:12:12.266Z,-0.50
2019-01-25T19:14:42.177Z,-0.50
2019-01-25T19:17:11.873Z,-0.60
2019-01-25T19:19:41.684Z,-0.60
2019-01-25T19:22:11.540Z,-0.60
2019-01-25T19:24:41.326Z,-0.60
2019-01-25T19:27:11.157Z,-0.60
2019-01-25T19:29:40.935Z,-0.70
2019-01-25T19:32:10.735Z,-0.70
2019-01-25T19:34:40.544Z,-0.80
2019-01-25T19:37:10.421Z,-0.80
2019-01-25T19:39:40.165Z,-0.90
2019-01-25T19:42:09.897Z,-0.90
2019-01-25T19:44:39.621Z,-0.90
2019-01-25T19:47:09.399Z,-0.90
2019-01-25T19:49:39.232Z,-0.90
2019-01-25T19:52:09.101Z,-0.90
2019-01-25T19:54:38.866Z,-0.90
2019-01-25T19:57:08.730Z,-1.00
2019-01-25T19:59:38.538Z,-1.00
2019-01-25T20:02:08.307Z,-1.10
2019-01-25T20:04:38.045Z,-1.10
2019-01-25T20:07:07.719Z,-1.10
2019-01-25T20:09:37.611Z,-1.20
2019-01-25T20:12:07.597Z,-1.20
2019-01-25T20:14:37.358Z,-1.30
2019-01-25T20:17:07.126Z,-1.20
2019-01-25T20:19:36.943Z,-1.30
2019-01-25T20:22:06.850Z,-1.20
2019-01-25T20:24:36.581Z,-1.30
2019-01-25T20:27:06.451Z,-1.30
2019-01-25T20:29:36.229Z,-1.30
2019-01-25T20:32:06.293Z,-1.30
2019-01-25T20:34:36.110Z,-1.30
2019-01-25T20:37:05.862Z,-1.30
2019-01-25T20:39:35.701Z,-1.30
2019-01-25T20:42:05.701Z,-1.40
2019-01-25T20:44:35.415Z,-1.40
2019-01-25T20:47:05.238Z,-1.40
2019-01-25T20:49:35.101Z,-1.40
2019-01-25T20:52:04.822Z,-1.30
2019-01-25T20:54:34.642Z,-1.30
2019-01-25T20:57:04.570Z,-1.30
2019-01-25T20:59:34.355Z,-1.20
2019-01-25T21:02:04.213Z,-1.20
2019-01-25T21:04:34.070Z,-1.20
2019-01-25T21:07:03.769Z,-1.30
2019-01-25T21:09:33.483Z,-1.30
2019-01-25T21:12:03.323Z,-1.30
2019-01-25T21:14:33.054Z,-1.30
2019-01-25T21:17:02.783Z,-1.30
2019-01-25T21:19:32.567Z,-1.30
2019-01-25T21:22:02.318Z,-1.30
2019-01-25T21:24:32.168Z,-1.30
2019-01-25T21:27:02.006Z,-1.30
2019-01-25T21:29:31.822Z,-1.30
2019-01-25T21:32:01.616Z,-1.30
2019-01-25T21:34:31.405Z,-1.20
2019-01-25T21:37:01.055Z,-1.30
2019-01-25T21:39:30.815Z,-1.30
2019-01-25T21:42:00.563Z,-1.30
2019-01-25T21:44:30.376Z,-1.30
2019-01-25T21:47:00.158Z,-1.30
2019-01-25T21:49:30.013Z,-1.30
2019-01-25T21:51:59.983Z,-1.30
2019-01-25T21:54:29.846Z,-1.30
2019-01-25T21:56:59.652Z,-1.30
2019-01-25T21:59:29.471Z,-1.30
2019-01-25T22:01:59.284Z,-1.30
2019-01-25T22:04:29.098Z,-1.30
2019-01-25T22:06:58.846Z,-1.30
2019-01-25T22:09:28.619Z,-1.40
2019-01-25T22:11:58.414Z,-1.40
2019-01-25T22:14:28.307Z,-1.40
2019-01-25T22:16:58.169Z,-1.40
2019-01-25T22:19:27.906Z,-1.50
2019-01-25T22:21:57.696Z,-1.50
2019-01-25T22:24:27.463Z,-1.50
2019-01-25T22:26:57.195Z,-1.50
2019-01-25T22:29:26.927Z,-1.50
2019-01-25T22:31:56.799Z,-1.50
2019-01-25T22:34:26.670Z,-1.50
2019-01-25T22:36:56.709Z,-1.50
2019-01-25T22:39:26.699Z,-1.50
2019-01-25T22:41:56.444Z,-1.50
2019-01-25T22:44:26.290Z,-1.60
2019-01-25T22:46:56.129Z,-1.60
2019-01-25T22:49:25.949Z,-1.60
2019-01-25T22:51:55.726Z,-1.60
2019-01-25T22:54:25.474Z,-1.60
2019-01-25T22:56:55.220Z,-1.60
2019-01-25T22:59:26.350Z,-1.60
2019-01-25T23:01:56.361Z,-1.60
2019-01-25T23:04:48.274Z,-1.60
2019-01-25T23:07:23.775Z,-1.60
2019-01-25T23:10:01.916Z,-1.70
2019-01-25T23:12:31.635Z,-1.70
2019-01-25T23:15:02.930Z,-1.70
2019-01-25T23:17:32.750Z,-1.70
2019-01-25T23:20:02.628Z,-1.70
2019-01-25T23:22:32.426Z,-1.70
2019-01-25T23:25:02.137Z,-1.70
2019-01-25T23:27:31.935Z,-1.70
2019-01-25T23:30:01.786Z,-1.70
2019-01-25T23:32:31.721Z,-1.70
2019-01-25T23:35:01.511Z,-1.70
2019-01-25T23:37:31.290Z,-1.80
2019-01-25T23:40:01.156Z,-1.80
2019-01-25T23:42:30.985Z,-1.80
2019-01-25T23:45:00.816Z,-1.80
2019-01-25T23:47:30.542Z,-1.80
2019-01-25T23:50:00.269Z,-1.80
2019-01-25T23:52:30.030Z,-1.80
2019-01-25T23:54:59.805Z,-1.80
2019-01-25T23:57:29.601Z,-1.80
2019-01-25T23:59:59.393Z,-1.80
